Terminal Aerodrome Forecast
Issued by NWS Mt. Holly, NJ

Home | Current Version | Previous Version | Text Only | Print | Product List | Glossary On
Versions: 1 2 3 4 5 6 7 8 9 10 11 12 13 14
000
FTUS41 KPHI 230530
TAFACY
TAF
KACY 230530Z 2306/2406 23008KT P6SM FEW060
     FM231100 29008KT P6SM FEW060
     FM231600 28012G20KT P6SM SCT050
     FM232300 24008KT P6SM SKC
     FM240500 VRB02KT P6SM SKC=

USA.gov is the U.S. government's official web portal to all federal, state and local government web resources and services.